createdAt,value
2023-08-19T00:01:30.800Z,23.87
2023-08-19T00:04:03.304Z,23.85
2023-08-19T00:06:37.247Z,23.83
2023-08-19T00:09:11.165Z,23.72
2023-08-19T00:11:43.389Z,23.79
2023-08-19T00:14:15.554Z,23.69
2023-08-19T00:16:48.147Z,23.74
2023-08-19T00:19:20.726Z,23.74
2023-08-19T00:21:53.555Z,23.72
2023-08-19T00:24:26.122Z,23.73
2023-08-19T00:26:59.292Z,23.73
2023-08-19T00:29:31.921Z,23.73
2023-08-19T00:32:04.689Z,23.72
2023-08-19T00:34:45.490Z,23.72
2023-08-19T00:37:17.880Z,23.71
2023-08-19T00:39:51.143Z,23.70
2023-08-19T00:42:23.682Z,23.68
2023-08-19T00:44:55.900Z,23.67
2023-08-19T00:47:28.723Z,23.65
2023-08-19T00:50:02.229Z,23.64
2023-08-19T00:52:35.779Z,23.63
2023-08-19T00:55:10.197Z,23.60
2023-08-19T00:57:42.800Z,23.57
2023-08-19T01:00:16.619Z,23.60
2023-08-19T01:02:49.010Z,23.58
2023-08-19T01:05:24.357Z,23.48
2023-08-19T01:08:01.250Z,23.54
2023-08-19T01:10:39.181Z,23.53
2023-08-19T01:13:15.953Z,23.50
2023-08-19T01:15:59.638Z,23.49
2023-08-19T01:18:33.209Z,23.48
2023-08-19T01:21:06.122Z,23.46
2023-08-19T01:23:44.738Z,23.36
2023-08-19T01:26:16.879Z,23.42
2023-08-19T01:28:49.978Z,23.40
2023-08-19T01:31:22.492Z,23.31
2023-08-19T01:33:55.124Z,23.37
2023-08-19T01:36:35.486Z,23.35
2023-08-19T01:39:12.183Z,23.36
2023-08-19T01:41:45.643Z,23.35
2023-08-19T01:44:18.258Z,23.35
2023-08-19T01:46:50.595Z,23.32
2023-08-19T01:49:23.832Z,23.31
2023-08-19T01:51:56.784Z,23.30
2023-08-19T01:54:29.425Z,23.30
2023-08-19T01:57:02.391Z,23.29
2023-08-19T01:59:34.683Z,23.28
2023-08-19T02:02:07.281Z,23.27
2023-08-19T02:04:39.624Z,23.26
2023-08-19T02:07:11.876Z,23.22
2023-08-19T02:09:46.336Z,23.20
2023-08-19T02:12:18.715Z,23.18
2023-08-19T02:14:51.141Z,23.14
2023-08-19T02:17:23.771Z,23.14
2023-08-19T02:19:56.202Z,23.12
2023-08-19T02:22:28.542Z,23.12
2023-08-19T02:25:00.865Z,23.12
2023-08-19T02:27:35.329Z,23.09
2023-08-19T02:30:11.511Z,23.09
2023-08-19T02:32:44.083Z,23.08
2023-08-19T02:35:18.015Z,23.08
2023-08-19T02:37:50.219Z,23.08
2023-08-19T02:40:22.866Z,23.06
2023-08-19T02:42:55.034Z,23.05
2023-08-19T02:45:29.262Z,23.04
2023-08-19T02:48:02.687Z,23.02
2023-08-19T02:50:35.048Z,23.02
2023-08-19T02:53:07.583Z,23.01
2023-08-19T02:55:44.053Z,23.00
2023-08-19T02:58:18.012Z,22.98
2023-08-19T03:00:50.926Z,22.97
2023-08-19T03:03:23.272Z,22.96
2023-08-19T03:05:58.824Z,22.96
2023-08-19T03:08:31.250Z,22.93
2023-08-19T03:11:03.553Z,22.92
2023-08-19T03:13:36.607Z,22.92
2023-08-19T03:16:09.392Z,22.90
2023-08-19T03:18:41.592Z,22.86
2023-08-19T03:21:14.452Z,22.83
2023-08-19T03:23:46.930Z,22.82
2023-08-19T03:26:20.092Z,22.82
2023-08-19T03:28:52.887Z,22.82
2023-08-19T03:31:25.841Z,22.82
2023-08-19T03:33:58.313Z,22.80
2023-08-19T03:36:31.005Z,22.75
2023-08-19T03:39:03.817Z,22.77
2023-08-19T03:41:36.001Z,22.76
2023-08-19T03:44:09.054Z,22.73
2023-08-19T03:46:41.191Z,22.72
2023-08-19T03:49:13.419Z,22.70
2023-08-19T03:51:45.677Z,22.68
2023-08-19T03:54:18.329Z,22.67
2023-08-19T03:56:51.069Z,22.66
2023-08-19T03:59:24.847Z,22.64
2023-08-19T04:01:57.685Z,22.64
2023-08-19T04:04:30.050Z,22.65
2023-08-19T04:07:02.246Z,22.64
2023-08-19T04:09:34.651Z,22.64
2023-08-19T04:12:09.529Z,22.64
2023-08-19T04:14:41.928Z,22.62
2023-08-19T04:17:14.730Z,22.62
2023-08-19T04:19:47.151Z,22.62
2023-08-19T04:22:19.989Z,22.62
2023-08-19T04:24:55.131Z,22.61
2023-08-19T04:27:27.961Z,22.62
2023-08-19T04:30:01.190Z,22.62
2023-08-19T04:32:34.520Z,22.50
2023-08-19T04:35:08.683Z,22.63
2023-08-19T04:37:41.859Z,22.63
2023-08-19T04:40:15.387Z,22.63
2023-08-19T04:42:49.818Z,22.64
2023-08-19T04:45:22.889Z,22.66
2023-08-19T04:47:55.228Z,22.69
2023-08-19T04:50:27.960Z,22.71
2023-08-19T04:53:00.447Z,22.71
2023-08-19T04:55:33.263Z,22.73
2023-08-19T04:58:05.892Z,22.75
2023-08-19T05:00:38.707Z,22.78
2023-08-19T05:03:11.122Z,22.81
2023-08-19T05:05:44.222Z,22.76
2023-08-19T05:08:17.250Z,22.86
2023-08-19T05:10:49.880Z,22.87
2023-08-19T05:13:22.780Z,22.89
2023-08-19T05:15:56.112Z,22.92
2023-08-19T05:18:28.422Z,22.94
2023-08-19T05:21:00.864Z,22.98
2023-08-19T05:23:33.284Z,23.01
2023-08-19T05:26:05.731Z,23.04
2023-08-19T05:28:38.320Z,23.06
2023-08-19T05:31:10.837Z,23.08
2023-08-19T05:33:43.459Z,23.11
2023-08-19T05:36:16.011Z,23.14
2023-08-19T05:38:48.150Z,23.16
2023-08-19T05:41:20.406Z,23.19
2023-08-19T05:43:52.600Z,23.22
2023-08-19T05:46:25.261Z,23.26
2023-08-19T05:48:57.765Z,23.26
2023-08-19T05:51:30.795Z,23.22
2023-08-19T05:54:04.234Z,23.34
2023-08-19T05:56:36.669Z,23.37
2023-08-19T05:59:09.480Z,23.40
2023-08-19T06:01:41.863Z,23.42
2023-08-19T06:04:14.276Z,23.32
2023-08-19T06:06:46.696Z,23.49
2023-08-19T06:09:19.015Z,23.53
2023-08-19T06:11:52.791Z,23.57
2023-08-19T06:14:25.017Z,23.62
2023-08-19T06:16:57.434Z,23.68
2023-08-19T06:19:29.950Z,23.71
2023-08-19T06:22:02.272Z,23.75
2023-08-19T06:24:34.450Z,23.80
2023-08-19T06:27:07.554Z,23.85
2023-08-19T06:29:40.408Z,23.92
2023-08-19T06:32:14.787Z,23.95
2023-08-19T06:34:47.876Z,24.00
2023-08-19T06:37:22.739Z,24.05
2023-08-19T06:39:59.769Z,24.11
2023-08-19T06:42:32.735Z,24.10
2023-08-19T06:45:06.786Z,24.22
2023-08-19T06:47:42.222Z,24.26
2023-08-19T06:50:16.698Z,24.32
2023-08-19T06:52:50.054Z,24.36
2023-08-19T06:55:23.490Z,24.41
2023-08-19T06:58:04.939Z,24.47
2023-08-19T07:00:39.552Z,24.54
2023-08-19T07:03:14.477Z,24.60
2023-08-19T07:05:47.782Z,24.64
2023-08-19T07:08:22.371Z,24.67
2023-08-19T07:10:55.427Z,24.56
2023-08-19T07:13:28.632Z,24.71
2023-08-19T07:16:04.558Z,24.79
2023-08-19T07:18:40.502Z,24.86
2023-08-19T07:21:16.154Z,24.92
2023-08-19T07:23:49.763Z,25.00
2023-08-19T07:26:22.821Z,25.07
2023-08-19T07:28:56.636Z,25.12
2023-08-19T07:31:31.992Z,25.17
2023-08-19T07:34:05.662Z,25.21
2023-08-19T07:36:37.976Z,25.25
2023-08-19T07:39:10.617Z,25.28
2023-08-19T07:41:43.447Z,25.35
2023-08-19T07:44:15.643Z,25.43
2023-08-19T07:46:48.296Z,25.48
2023-08-19T07:49:20.954Z,25.54
2023-08-19T07:51:53.705Z,25.57
2023-08-19T07:54:26.372Z,25.60
2023-08-19T07:57:00.181Z,25.63
2023-08-19T07:59:32.891Z,25.66
2023-08-19T08:02:05.840Z,25.70
2023-08-19T08:04:38.459Z,25.65
2023-08-19T08:07:10.936Z,25.74
2023-08-19T08:09:45.109Z,25.82
2023-08-19T08:12:17.656Z,25.93
2023-08-19T08:14:50.177Z,25.89
2023-08-19T08:17:22.233Z,26.03
2023-08-19T08:19:54.526Z,26.07
2023-08-19T08:22:26.735Z,26.16
2023-08-19T08:25:00.298Z,26.08
2023-08-19T08:27:32.936Z,26.22
2023-08-19T08:30:06.726Z,26.28
2023-08-19T08:32:39.318Z,26.35
2023-08-19T08:35:11.992Z,26.39
2023-08-19T08:37:44.533Z,26.40
2023-08-19T08:40:17.261Z,26.42
2023-08-19T08:42:49.974Z,26.51
2023-08-19T08:45:25.625Z,26.49
2023-08-19T08:47:58.323Z,26.61
2023-08-19T08:50:30.923Z,26.68
2023-08-19T08:53:03.876Z,26.76
2023-08-19T08:55:36.645Z,26.77
2023-08-19T08:58:08.902Z,26.84
2023-08-19T09:00:42.445Z,26.91
2023-08-19T09:03:16.407Z,26.91
2023-08-19T09:05:53.822Z,26.98
2023-08-19T09:08:33.383Z,27.04
2023-08-19T09:11:07.328Z,27.14
2023-08-19T09:13:40.387Z,27.19
2023-08-19T09:16:13.002Z,27.23
2023-08-19T09:18:47.077Z,27.25
2023-08-19T09:21:19.551Z,27.30
2023-08-19T09:23:51.680Z,27.41
2023-08-19T09:26:24.139Z,27.49
2023-08-19T09:28:59.962Z,27.52
2023-08-19T09:31:33.758Z,27.55
2023-08-19T09:34:06.479Z,27.67
2023-08-19T09:36:38.514Z,27.76
2023-08-19T09:39:10.716Z,27.85
2023-08-19T09:41:43.009Z,27.85
2023-08-19T09:44:18.827Z,27.92
2023-08-19T09:46:51.521Z,28.01
2023-08-19T09:49:25.578Z,28.10
2023-08-19T09:51:58.626Z,28.19
2023-08-19T09:54:31.266Z,28.26
2023-08-19T09:57:03.417Z,28.25
2023-08-19T09:59:35.646Z,28.39
2023-08-19T10:02:10.474Z,28.32
2023-08-19T10:04:43.016Z,28.39
2023-08-19T10:07:19.156Z,28.43
2023-08-19T10:09:53.318Z,28.63
2023-08-19T10:12:26.473Z,28.74
2023-08-19T10:15:00.929Z,28.82
2023-08-19T10:17:35.971Z,28.83
2023-08-19T10:20:13.331Z,28.94
2023-08-19T10:22:51.728Z,29.00
2023-08-19T10:25:25.352Z,29.08
2023-08-19T10:28:12.720Z,29.15
2023-08-19T10:30:45.189Z,29.17
2023-08-19T10:33:40.634Z,29.24
2023-08-19T10:36:16.308Z,29.23
2023-08-19T10:38:51.456Z,29.35
2023-08-19T10:41:27.996Z,29.48
2023-08-19T10:44:04.974Z,29.57
2023-08-19T10:46:38.967Z,29.64
2023-08-19T10:49:13.896Z,29.71
2023-08-19T10:51:54.964Z,29.75
2023-08-19T10:54:33.033Z,29.80
2023-08-19T10:57:13.723Z,29.80
2023-08-19T10:59:48.936Z,29.83
2023-08-19T11:02:22.008Z,29.81
2023-08-19T11:04:55.105Z,29.92
2023-08-19T11:07:28.987Z,29.99
2023-08-19T11:10:01.460Z,29.98
2023-08-19T11:12:34.280Z,30.11
2023-08-19T11:15:08.786Z,30.22
2023-08-19T11:17:41.297Z,30.30
2023-08-19T11:20:17.397Z,30.40
2023-08-19T11:22:52.037Z,30.50
2023-08-19T11:25:35.030Z,30.60
2023-08-19T11:28:08.377Z,30.66
2023-08-19T11:30:41.162Z,30.72
2023-08-19T11:33:17.656Z,30.85
2023-08-19T11:35:50.352Z,30.93
2023-08-19T11:38:22.896Z,30.90
2023-08-19T11:40:55.619Z,30.72
2023-08-19T11:43:28.605Z,30.61
2023-08-19T11:46:01.861Z,30.72
2023-08-19T11:48:34.445Z,30.73
2023-08-19T11:51:13.072Z,30.85
2023-08-19T11:53:50.107Z,30.97
2023-08-19T11:56:24.357Z,30.95
2023-08-19T11:58:58.406Z,30.95
2023-08-19T12:01:32.219Z,31.13
2023-08-19T12:04:11.546Z,31.10
2023-08-19T12:06:46.128Z,31.04
2023-08-19T12:09:22.326Z,31.12
2023-08-19T12:12:08.884Z,31.18
2023-08-19T12:14:41.623Z,31.15
2023-08-19T12:17:14.804Z,31.14
2023-08-19T12:19:47.619Z,31.22
2023-08-19T12:22:20.423Z,31.31
2023-08-19T12:24:52.628Z,31.36
2023-08-19T12:27:25.011Z,31.34
2023-08-19T12:29:57.115Z,31.36
2023-08-19T12:32:29.607Z,31.40
2023-08-19T12:35:02.096Z,31.46
2023-08-19T12:37:34.620Z,31.47
2023-08-19T12:40:11.135Z,31.47
2023-08-19T12:42:48.747Z,31.55
2023-08-19T12:45:22.283Z,31.57
2023-08-19T12:47:54.894Z,31.47
2023-08-19T12:50:27.977Z,31.54
2023-08-19T12:53:00.303Z,31.65
2023-08-19T12:55:33.033Z,31.68
2023-08-19T12:58:06.306Z,31.72
2023-08-19T13:00:39.512Z,31.72
2023-08-19T13:03:11.740Z,31.69
2023-08-19T13:05:44.923Z,31.81
2023-08-19T13:08:17.334Z,31.84
2023-08-19T13:10:49.996Z,31.85
2023-08-19T13:13:22.438Z,31.93
2023-08-19T13:15:54.784Z,31.95
2023-08-19T13:18:27.695Z,31.99
2023-08-19T13:20:59.982Z,31.97
2023-08-19T13:23:32.591Z,31.99
2023-08-19T13:26:04.740Z,31.95
2023-08-19T13:28:36.912Z,31.99
2023-08-19T13:31:09.007Z,31.93
2023-08-19T13:33:41.394Z,31.93
2023-08-19T13:36:13.707Z,31.91
2023-08-19T13:38:46.426Z,31.99
2023-08-19T13:41:19.159Z,32.14
2023-08-19T13:43:51.257Z,32.28
2023-08-19T13:46:23.721Z,32.20
2023-08-19T13:48:56.445Z,32.18
2023-08-19T13:51:28.690Z,32.21
2023-08-19T13:54:01.273Z,32.20
2023-08-19T13:56:34.268Z,32.18
2023-08-19T13:59:06.816Z,32.24
2023-08-19T14:01:39.258Z,32.46
2023-08-19T14:04:13.750Z,32.62
2023-08-19T14:06:46.677Z,32.61
2023-08-19T14:09:18.908Z,32.57
2023-08-19T14:11:51.824Z,32.63
2023-08-19T14:14:24.442Z,32.68
2023-08-19T14:16:57.865Z,33.02
2023-08-19T14:19:30.293Z,32.84
2023-08-19T14:22:02.818Z,32.69
2023-08-19T14:24:35.238Z,32.96
2023-08-19T14:27:08.058Z,32.90
2023-08-19T14:29:40.306Z,32.70
2023-08-19T14:32:12.483Z,32.66
2023-08-19T14:34:45.049Z,32.61
2023-08-19T14:37:17.794Z,32.47
2023-08-19T14:39:50.322Z,32.34
2023-08-19T14:42:23.070Z,32.29
2023-08-19T14:44:55.750Z,32.29
2023-08-19T14:47:27.935Z,32.20
2023-08-19T14:50:00.249Z,32.21
2023-08-19T14:52:33.298Z,32.18
2023-08-19T14:55:07.694Z,32.11
2023-08-19T14:57:42.782Z,31.96
2023-08-19T15:00:18.021Z,31.84
2023-08-19T15:02:51.930Z,31.67
2023-08-19T15:05:24.719Z,31.65
2023-08-19T15:07:57.665Z,31.55
2023-08-19T15:10:30.181Z,31.36
2023-08-19T15:13:03.476Z,31.33
2023-08-19T15:15:36.097Z,31.23
2023-08-19T15:18:09.010Z,31.10
2023-08-19T15:20:42.555Z,31.02
2023-08-19T15:23:33.196Z,30.91
2023-08-19T15:26:05.556Z,30.84
2023-08-19T15:28:37.673Z,30.75
2023-08-19T15:31:09.865Z,30.68
2023-08-19T15:33:42.119Z,30.62
2023-08-19T15:36:14.276Z,30.51
2023-08-19T15:38:46.427Z,30.47
2023-08-19T15:41:19.301Z,30.38
2023-08-19T15:43:51.732Z,30.30
2023-08-19T15:46:24.828Z,30.33
2023-08-19T15:48:57.119Z,30.24
2023-08-19T15:51:29.589Z,30.19
2023-08-19T15:54:01.957Z,30.17
2023-08-19T15:56:34.387Z,30.16
2023-08-19T15:59:06.999Z,30.13
2023-08-19T16:01:39.317Z,30.06
2023-08-19T16:04:13.141Z,30.05
2023-08-19T16:06:45.833Z,29.99
2023-08-19T16:09:18.316Z,29.95
2023-08-19T16:11:50.975Z,29.95
2023-08-19T16:14:23.965Z,29.91
2023-08-19T16:16:57.004Z,29.89
2023-08-19T16:19:29.979Z,29.86
2023-08-19T16:22:02.719Z,29.80
2023-08-19T16:24:34.944Z,29.67
2023-08-19T16:27:07.686Z,29.68
2023-08-19T16:29:40.562Z,29.75
2023-08-19T16:32:12.821Z,29.69
2023-08-19T16:34:45.158Z,29.68
2023-08-19T16:37:17.702Z,29.66
2023-08-19T16:39:50.360Z,29.65
2023-08-19T16:42:24.385Z,29.66
2023-08-19T16:44:57.284Z,29.61
2023-08-19T16:47:30.240Z,29.58
2023-08-19T16:50:03.178Z,29.55
2023-08-19T16:52:35.649Z,29.51
2023-08-19T16:55:09.437Z,29.48
2023-08-19T16:57:42.091Z,29.46
2023-08-19T17:00:15.509Z,29.29
2023-08-19T17:02:47.602Z,29.41
2023-08-19T17:05:20.608Z,29.32
2023-08-19T17:07:53.067Z,29.39
2023-08-19T17:10:27.213Z,29.37
2023-08-19T17:13:00.170Z,29.27
2023-08-19T17:15:32.815Z,29.31
2023-08-19T17:18:05.374Z,29.20
2023-08-19T17:20:37.493Z,29.25
2023-08-19T17:23:09.942Z,29.21
2023-08-19T17:25:43.307Z,29.19
2023-08-19T17:28:15.568Z,29.19
2023-08-19T17:30:48.023Z,29.15
2023-08-19T17:33:20.463Z,29.10
2023-08-19T17:35:52.891Z,29.03
2023-08-19T17:38:25.168Z,29.03
2023-08-19T17:41:02.117Z,29.01
2023-08-19T17:43:34.882Z,28.98
2023-08-19T17:46:07.560Z,28.92
2023-08-19T17:48:39.839Z,28.89
2023-08-19T17:51:12.274Z,28.84
2023-08-19T17:53:44.744Z,28.76
2023-08-19T17:56:17.417Z,28.70
2023-08-19T17:58:50.039Z,28.65
2023-08-19T18:01:22.208Z,28.61
2023-08-19T18:03:54.589Z,28.54
2023-08-19T18:06:27.101Z,28.42
2023-08-19T18:08:59.295Z,28.47
2023-08-19T18:11:31.490Z,28.42
2023-08-19T18:14:04.255Z,28.38
2023-08-19T18:16:36.729Z,28.33
2023-08-19T18:19:13.488Z,28.28
2023-08-19T18:21:45.563Z,28.22
2023-08-19T18:24:18.146Z,28.17
2023-08-19T18:26:50.420Z,28.13
2023-08-19T18:29:22.860Z,28.07
2023-08-19T18:31:58.263Z,28.01
2023-08-19T18:34:31.637Z,27.88
2023-08-19T18:37:05.766Z,27.89
2023-08-19T18:39:37.834Z,27.84
2023-08-19T18:42:10.926Z,27.79
2023-08-19T18:44:43.426Z,27.68
2023-08-19T18:47:15.878Z,27.72
2023-08-19T18:49:50.265Z,27.69
2023-08-19T18:52:22.347Z,27.64
2023-08-19T18:54:54.671Z,27.59
2023-08-19T18:57:26.873Z,27.54
2023-08-19T18:59:59.658Z,27.49
2023-08-19T19:02:31.922Z,27.43
2023-08-19T19:05:06.621Z,27.39
2023-08-19T19:07:39.368Z,27.34
2023-08-19T19:10:13.180Z,27.29
2023-08-19T19:12:46.066Z,27.25
2023-08-19T19:15:18.872Z,27.19
2023-08-19T19:17:54.273Z,27.16
2023-08-19T19:20:27.604Z,27.11
2023-08-19T19:23:00.087Z,27.08
2023-08-19T19:25:32.478Z,27.02
2023-08-19T19:28:04.674Z,26.99
2023-08-19T19:30:37.347Z,26.96
2023-08-19T19:33:09.863Z,26.95
2023-08-19T19:35:43.018Z,26.90
2023-08-19T19:38:15.262Z,26.78
2023-08-19T19:40:47.557Z,26.81
2023-08-19T19:43:20.707Z,26.78
2023-08-19T19:45:54.790Z,26.74
2023-08-19T19:48:27.464Z,26.69
2023-08-19T19:50:59.860Z,26.65
2023-08-19T19:53:32.398Z,26.63
2023-08-19T19:56:04.916Z,26.58
2023-08-19T19:58:37.263Z,26.55
2023-08-19T20:01:09.438Z,26.52
2023-08-19T20:03:41.879Z,26.49
2023-08-19T20:06:14.225Z,26.46
2023-08-19T20:08:47.337Z,26.43
2023-08-19T20:11:22.553Z,26.42
2023-08-19T20:13:55.415Z,26.40
2023-08-19T20:16:29.468Z,26.36
2023-08-19T20:19:02.225Z,26.31
2023-08-19T20:21:34.668Z,26.26
2023-08-19T20:24:09.222Z,26.22
2023-08-19T20:26:42.063Z,26.20
2023-08-19T20:29:14.215Z,26.18
2023-08-19T20:31:47.349Z,26.09
2023-08-19T20:34:19.897Z,26.14
2023-08-19T20:36:52.421Z,26.12
2023-08-19T20:39:24.780Z,26.08
2023-08-19T20:41:58.316Z,26.06
2023-08-19T20:44:30.599Z,26.03
2023-08-19T20:47:02.964Z,25.93
2023-08-19T20:49:36.524Z,25.98
2023-08-19T20:52:09.552Z,25.96
2023-08-19T20:54:43.885Z,25.93
2023-08-19T20:57:16.528Z,25.92
2023-08-19T20:59:50.382Z,25.91
2023-08-19T21:02:23.411Z,25.90
2023-08-19T21:04:55.622Z,25.87
2023-08-19T21:07:28.033Z,25.85
2023-08-19T21:10:00.387Z,25.83
2023-08-19T21:12:32.587Z,25.81
2023-08-19T21:15:04.961Z,25.79
2023-08-19T21:17:37.826Z,25.75
2023-08-19T21:20:13.001Z,25.75
2023-08-19T21:22:45.993Z,25.73
2023-08-19T21:25:18.938Z,25.70
2023-08-19T21:27:51.359Z,25.61
2023-08-19T21:30:23.852Z,25.65
2023-08-19T21:32:56.275Z,25.64
2023-08-19T21:35:28.971Z,25.62
2023-08-19T21:38:01.484Z,25.53
2023-08-19T21:40:37.831Z,25.52
2023-08-19T21:43:15.200Z,25.59
2023-08-19T21:45:48.205Z,25.59
2023-08-19T21:48:21.395Z,25.57
2023-08-19T21:50:54.133Z,25.55
2023-08-19T21:53:27.458Z,25.52
2023-08-19T21:56:00.231Z,25.50
2023-08-19T21:58:35.325Z,25.47
2023-08-19T22:01:07.944Z,25.46
2023-08-19T22:03:40.266Z,25.44
2023-08-19T22:06:12.827Z,25.42
2023-08-19T22:08:45.574Z,25.40
2023-08-19T22:11:18.814Z,25.41
2023-08-19T22:13:51.513Z,25.39
2023-08-19T22:16:26.719Z,25.35
2023-08-19T22:18:59.452Z,25.33
2023-08-19T22:21:35.304Z,25.31
2023-08-19T22:24:09.658Z,25.28
2023-08-19T22:26:43.283Z,25.26
2023-08-19T22:29:16.279Z,25.25
2023-08-19T22:31:48.437Z,25.13
2023-08-19T22:34:20.794Z,25.21
2023-08-19T22:36:53.125Z,25.18
2023-08-19T22:39:25.355Z,25.09
2023-08-19T22:41:58.574Z,25.15
2023-08-19T22:44:30.826Z,25.14
2023-08-19T22:47:02.950Z,25.12
2023-08-19T22:49:35.617Z,25.12
2023-08-19T22:52:11.262Z,25.03
2023-08-19T22:54:44.195Z,25.04
2023-08-19T22:57:17.036Z,25.01
2023-08-19T22:59:49.685Z,24.97
2023-08-19T23:02:22.409Z,24.96
2023-08-19T23:04:54.986Z,24.97
2023-08-19T23:07:27.428Z,24.96
2023-08-19T23:09:59.845Z,24.87
2023-08-19T23:12:32.178Z,24.94
2023-08-19T23:15:04.836Z,24.92
2023-08-19T23:17:37.589Z,24.90
2023-08-19T23:20:12.951Z,24.88
2023-08-19T23:22:45.272Z,24.86
2023-08-19T23:25:17.786Z,24.83
2023-08-19T23:27:49.866Z,24.80
2023-08-19T23:30:22.177Z,24.78
2023-08-19T23:32:54.524Z,24.77
2023-08-19T23:35:26.831Z,24.65
2023-08-19T23:37:58.983Z,24.70
2023-08-19T23:40:31.184Z,24.68
2023-08-19T23:43:03.500Z,24.58
2023-08-19T23:45:35.648Z,24.64
2023-08-19T23:48:09.699Z,24.62
2023-08-19T23:50:44.058Z,24.61
2023-08-19T23:53:17.242Z,24.60
2023-08-19T23:55:50.735Z,24.58
2023-08-19T23:58:26.087Z,24.57
